Parowan, UT (84761)

9:50 PM MDT on August 27, 2014 (GMT -0600)
Fremont mounds | Change Station
CLOSE
Current Station
Personal Weather Station
Location: Paragonah, UT
Elevation: 5873 ft
Nearby Weather Stations

Elev 5873 ft 37.89 °N, 112.77 °W | Updated 4 minutes ago

Clear
Clear
60.6 °F
Feels Like 60.6 °F
N
1.6
Wind Variable Wind from SSE

Today
High -- | Low -- °F
--% Chance of Precip.
Yesterday
High -- | Low -- °F
Precip. -- in
6:57 AM 8:07 PM
Waxing Crescent, 6% visible
Pressure 30.10 in
Visibility 10.0 miles
Clouds Clear
Dew Point 44 °F
Humidity 55%
Rainfall 0.00 in
Snow Depth 2 in
UV 0 out of 12
Pollen 6.10 out of 12
Air Quality Not available.
Flu Activity Not available.
METAR KCDC 280253Z AUTO 03006KT 10SM CLR 18/06 A3025 RMK AO2 SLP191 T01780061 53003

More Conditions Fewer Conditions

Pressure 30.10 in
Visibility 10.0 miles
Clouds Clear
Dew Point 44 °F
Humidity 55%
Rainfall 0.00 in
Snow Depth 2 in
UV 0 out of 12
Pollen 6.10 out of 12
Air Quality Not available.
Flu Activity Not available.
METAR KCDC 280253Z AUTO 03006KT 10SM CLR 18/06 A3025 RMK AO2 SLP191 T01780061 53003

More Conditions Fewer Conditions

10-Day Weather Forecast

Almanac

Astronomy

Aug. 27, 2014 Rise Set
Actual Time 6:57 AM MDT 8:07 PM MDT
Civil Twilight 6:29 AM MDT 8:34 PM MDT
Nautical Twilight 5:57 AM MDT 9:07 PM MDT
Astronomical Twilight 5:23 AM MDT 9:40 PM MDT
Moon 8:54 AM MDT (8/27) 9:05 PM MDT (8/27)
Length of Visible Light 14h 04m
Length of Day
13h 10m
Tomorrow will be 2m 18s shorter.
Waxing Crescent, 6% of the Moon is Illuminated
Today
Waxing Crescent
Sep 2
First Quarter
Sep 8
Full
Sep 15
Last Quarter
Sep 24
New

Today's Extremes

State Highs State Lows

Community

WunderPhotos

Upload Photos

1,747,894 photos uploaded!

Nearby

Snow Depth

Station Depth Elevation
Midway Valley 2 in 9800 ft
Long Valley Jct 0 in 7360 ft
Agua Canyon 3 in 8900 ft
Kimberly Mine 0 in 9300 ft
Clayton Springs 0 in 10000 ft

Earthquake Activity

City Distance Mag. Time & Date
No recent earthquake activity has been reported nearby.
Minimum magnitude displayed is 2.5.

Coastal Water Temperatures

Place Temperature
No Stations Reporting

Nearby Weather Stations